Terminal Aerodrome Forecast
Issued by NWS

Home | Current Version | Previous Version | Graphics & Text | Print | Product List | Glossary On
Versions: 1 2 3 4 5 6 7 8 9 10 11 12 13 14 15 16 17 18 19 20 21 22 23 24 25 26
000
FTUS43 KLOT 210911 AAA
TAFGYY
TAF AMD
KGYY 210911Z 2109/2206 04005KT 6SM -SHRA BR OVC005
     FM211130 08009KT 5SM -SHRA BR VCTS OVC004CB
     FM211600 12011KT 6SM -SHRA BR BKN008 OVC015
     FM212100 09009KT 6SM BR VCSH SCT010 OVC020 PROB30 2122/2124 3SM
      -TSRA BR OVC010CB
     FM220200 06010KT P6SM BKN008=

USA.gov is the U.S. government's official web portal to all federal, state and local government web resources and services.